Aviation Digital Data Service (ADDS)

Output produced by TAFs form (1002 UTC 23 April 2017)
found at http://www.aviationweather.gov/adds/tafs/
 
METAR text: RJAF 230700Z 35012KT 9999 FEW070 14/M00 Q1016
Conditions at: RJAF (MATSUMOTO AIRPOR, JP) observed 0700 UTC 23 April 2017
Temperature: 14.0°C (57°F)
Dewpoint: 0.0°C (32°F) [RH = 38%]
Pressure (altimeter): 30.00 inches Hg (1016.0 mb)
Winds: from the N (350 degrees) at 14 MPH (12 knots; 6.2 m/s)
Visibility: 6 or more miles (10+ km)
Ceiling: at least 12,000 feet AGL
Clouds: few clouds at 7000 feet AGL
Weather: no significant weather observed at this time